Time;durP1;ratioP1;P1;durP2;ratioP2;P2;SDS_P1;SDS_P2;PMS_P1;PMS_P2;Temp;Humidity;BMP_temperature;BMP_pressure;BME280_temperature;BME280_humidity;BME280_pressure;Samples;Min_cycle;Max_cycle;Signal;HPM_P1;HPM_P2
2022/12/03 00:01:33;;;;;;;1566.63;483.73;;;1.50;99.90;;;;;;5069349;28;20739;-51
2022/12/03 00:04:03;;;;;;;1870.67;518.00;;;1.50;99.90;;;;;;5085599;28;20297;-51
2022/12/03 00:06:31;;;;;;;111.00;58.53;;;1.40;99.90;;;;;;5092409;28;20211;-51
2022/12/03 00:09:01;;;;;;;285.43;205.70;;;1.40;99.90;;;;;;5092717;28;20299;-51
2022/12/03 00:11:29;;;;;;;1999.90;555.07;;;1.40;99.90;;;;;;5092640;28;20238;-51
2022/12/03 00:13:57;;;;;;;557.00;195.27;;;1.40;99.90;;;;;;5084270;28;20863;-51
2022/12/03 00:16:26;;;;;;;1999.90;820.93;;;1.40;99.90;;;;;;5087423;28;20250;-51
2022/12/03 00:18:54;;;;;;;760.87;258.67;;;1.50;99.90;;;;;;5082767;28;20727;-51
2022/12/03 00:21:23;;;;;;;1128.63;310.27;;;1.40;99.90;;;;;;5084024;28;20250;-51
2022/12/03 00:23:52;;;;;;;789.33;252.50;;;1.40;99.90;;;;;;5091725;28;20207;-51
2022/12/03 00:26:20;;;;;;;110.07;92.90;;;1.40;99.90;;;;;;5090271;28;20294;-51
2022/12/03 00:28:48;;;;;;;129.40;91.07;;;1.40;99.90;;;;;;5092057;28;20233;-51
2022/12/03 00:31:16;;;;;;;185.93;137.67;;;1.40;99.90;;;;;;5092080;28;20199;-51
2022/12/03 00:33:44;;;;;;;79.57;52.50;;;1.50;99.90;;;;;;5091088;28;20763;-52
2022/12/03 00:36:12;;;;;;;150.97;114.10;;;1.50;99.90;;;;;;5081692;28;20209;-51
2022/12/03 00:38:41;;;;;;;50.17;45.00;;;1.60;99.90;;;;;;5073256;28;20661;-51
2022/12/03 00:41:09;;;;;;;305.13;183.13;;;1.50;99.90;;;;;;5091430;28;20282;-51
2022/12/03 00:43:37;;;;;;;117.87;105.83;;;1.50;99.90;;;;;;5091224;28;20639;-51
2022/12/03 00:46:06;;;;;;;1137.10;282.13;;;1.50;99.90;;;;;;5091483;28;20207;-51
2022/12/03 00:48:34;;;;;;;633.77;157.87;;;1.50;99.90;;;;;;5091702;28;20228;-52
2022/12/03 00:51:02;;;;;;;228.63;122.40;;;1.40;99.90;;;;;;5081886;28;20656;-52
2022/12/03 00:53:30;;;;;;;360.53;113.83;;;1.40;99.90;;;;;;5079155;28;20299;-51
2022/12/03 00:56:01;;;;;;;67.27;59.87;;;1.40;99.90;;;;;;5089500;28;20767;-51
2022/12/03 00:58:29;;;;;;;51.90;43.37;;;1.50;99.90;;;;;;5091652;28;20239;-51
2022/12/03 01:00:57;;;;;;;71.80;60.43;;;1.50;99.90;;;;;;5090569;28;20218;-51
2022/12/03 01:03:25;;;;;;;1910.93;446.53;;;1.50;99.90;;;;;;5082685;28;20298;-51
2022/12/03 01:05:53;;;;;;;1165.87;398.50;;;1.50;99.90;;;;;;5091250;28;20240;-51
2022/12/03 01:08:21;;;;;;;1428.53;351.53;;;1.50;99.90;;;;;;5067750;28;20266;-51
2022/12/03 01:10:49;;;;;;;909.13;289.60;;;1.50;99.90;;;;;;5080343;28;20722;-51
2022/12/03 01:13:18;;;;;;;1999.90;634.20;;;1.50;99.90;;;;;;5090727;28;20297;-51
2022/12/03 01:15:46;;;;;;;137.07;114.43;;;1.50;99.90;;;;;;5091363;28;20200;-51
2022/12/03 01:18:14;;;;;;;1216.77;309.00;;;1.40;99.90;;;;;;5090673;28;20707;-51
2022/12/03 01:20:43;;;;;;;1999.90;657.47;;;1.40;99.90;;;;;;5090816;28;20646;-51
2022/12/03 01:23:11;;;;;;;1136.00;415.87;;;1.40;99.90;;;;;;5085908;28;20492;-51
2022/12/03 01:25:39;;;;;;;140.43;122.93;;;1.40;99.90;;;;;;5081594;28;20294;-51
2022/12/03 01:28:07;;;;;;;416.93;205.43;;;1.40;99.90;;;;;;5082523;28;20264;-51
2022/12/03 01:32:15;;;;;;;1682.73;380.60;;;1.40;99.90;;;;;;5090990;28;20209;-52
2022/12/03 01:33:24;;;;;;;303.60;197.97;;;1.30;99.90;;;;;;5090089;28;20687;-51
2022/12/03 01:35:52;;;;;;;48.70;41.60;;;1.30;99.90;;;;;;5082452;28;20296;-51
2022/12/03 01:38:20;;;;;;;683.80;223.03;;;1.40;99.90;;;;;;5083574;28;20343;-51
2022/12/03 01:40:48;;;;;;;69.03;50.93;;;1.30;99.90;;;;;;5090420;28;20293;-51
2022/12/03 01:43:16;;;;;;;548.47;202.20;;;1.40;99.90;;;;;;5090131;28;20229;-51
2022/12/03 01:45:46;;;;;;;1999.90;683.00;;;1.40;99.90;;;;;;5090255;28;20877;-51
2022/12/03 01:48:16;;;;;;;98.07;89.37;;;1.40;99.90;;;;;;5081685;28;20311;-51
2022/12/03 01:50:44;;;;;;;803.43;285.37;;;1.40;99.90;;;;;;5084269;28;20200;-51
2022/12/03 01:56:55;;;;;;;793.20;428.90;;;1.40;99.90;;;;;;5064409;28;20191;-51
2022/12/03 01:59:32;;;;;;;72.10;58.17;;;1.50;99.90;;;;;;5088054;28;20290;-51
2022/12/03 02:02:11;;;;;;;131.97;103.67;;;1.50;99.90;;;;;;5089952;28;20239;-51
2022/12/03 02:04:39;;;;;;;202.73;120.23;;;1.50;99.90;;;;;;5090116;28;20277;-51
2022/12/03 02:07:19;;;;;;;264.30;126.83;;;1.40;99.90;;;;;;5081498;28;20318;-51
2022/12/03 02:09:47;;;;;;;439.10;121.83;;;1.40;99.90;;;;;;5089880;28;20665;-51
2022/12/03 02:12:19;;;;;;;593.10;258.97;;;1.30;99.90;;;;;;5080192;28;20677;-51
2022/12/03 02:14:47;;;;;;;860.30;240.50;;;1.40;99.90;;;;;;5076281;28;20238;-51
2022/12/03 02:17:17;;;;;;;113.97;98.40;;;1.40;99.90;;;;;;5084298;28;20975;-52
2022/12/03 02:19:46;;;;;;;1999.90;999.90;;;1.40;99.90;;;;;;5086428;28;20235;-51
2022/12/03 02:22:25;;;;;;;1164.53;299.77;;;1.60;99.90;;;;;;5074988;28;20330;-51
2022/12/03 02:24:57;;;;;;;965.07;303.90;;;1.50;99.90;;;;;;5087765;28;20233;-52
2022/12/03 02:27:28;;;;;;;1999.90;742.03;;;1.40;99.90;;;;;;5072085;28;20330;-51
2022/12/03 02:29:56;;;;;;;1999.90;782.00;;;1.50;99.90;;;;;;5083108;28;20669;-51
2022/12/03 02:32:24;;;;;;;299.60;138.40;;;1.50;99.90;;;;;;5079445;28;20238;-51
2022/12/03 02:34:52;;;;;;;1999.90;810.97;;;1.40;99.90;;;;;;5088192;28;20242;-51
2022/12/03 02:37:24;;;;;;;1337.27;405.40;;;1.40;99.90;;;;;;5074222;28;20230;-51
2022/12/03 02:39:55;;;;;;;317.93;212.43;;;1.30;99.90;;;;;;5079038;28;20234;-52
2022/12/03 02:42:35;;;;;;;1146.67;327.90;;;1.30;99.90;;;;;;5082627;28;20761;-51
2022/12/03 02:45:09;;;;;;;1834.57;553.97;;;1.40;99.90;;;;;;5089333;28;20211;-51
2022/12/03 02:47:43;;;;;;;721.73;334.57;;;1.30;99.90;;;;;;5082240;28;20317;-51
2022/12/03 02:50:15;;;;;;;1999.90;799.40;;;1.40;99.90;;;;;;5089327;28;20200;-51
2022/12/03 02:52:45;;;;;;;1889.57;616.87;;;1.40;99.90;;;;;;5077439;28;20298;-51
2022/12/03 02:55:15;;;;;;;1999.90;864.83;;;1.30;99.90;;;;;;5077602;28;20827;-51
2022/12/03 02:57:46;;;;;;;1999.90;901.17;;;1.30;99.90;;;;;;5082128;28;20252;-51
2022/12/03 03:00:17;;;;;;;1999.90;799.40;;;1.20;99.90;;;;;;5082699;28;20298;-51
2022/12/03 03:02:46;;;;;;;298.17;164.53;;;1.20;99.90;;;;;;5077294;28;20314;-51
2022/12/03 03:05:16;;;;;;;1999.90;935.20;;;1.10;99.90;;;;;;5088770;28;20242;-51
2022/12/03 03:07:44;;;;;;;1999.90;855.00;;;1.30;99.90;;;;;;5077149;28;20265;-51
2022/12/03 03:10:16;;;;;;;1999.90;733.60;;;1.20;99.90;;;;;;5063240;28;20793;-51
2022/12/03 03:12:44;;;;;;;1999.90;733.50;;;1.20;99.90;;;;;;5074968;28;20200;-51
2022/12/03 03:15:13;;;;;;;1256.03;375.23;;;1.20;99.90;;;;;;5088880;28;20211;-51
2022/12/03 03:17:43;;;;;;;1999.90;783.37;;;1.10;99.90;;;;;;5088782;28;20760;-51
2022/12/03 03:20:11;;;;;;;1500.60;454.50;;;1.20;99.90;;;;;;5083511;28;20299;-51
2022/12/03 03:22:41;;;;;;;517.57;241.27;;;1.10;99.90;;;;;;5068936;28;20263;-51
2022/12/03 03:25:14;;;;;;;833.40;294.73;;;1.20;99.90;;;;;;5075799;28;20563;-51
2022/12/03 03:27:42;;;;;;;1466.27;553.67;;;1.10;99.90;;;;;;5067979;28;20276;-51
2022/12/03 03:30:11;;;;;;;1874.77;536.60;;;1.10;99.90;;;;;;5068519;28;20206;-51
2022/12/03 03:32:40;;;;;;;374.57;214.10;;;1.10;99.90;;;;;;5067931;28;20279;-51
2022/12/03 03:35:11;;;;;;;1999.90;770.33;;;1.20;99.90;;;;;;5068841;28;20297;-51
2022/12/03 03:37:39;;;;;;;1999.90;768.13;;;1.10;99.90;;;;;;5059036;28;20233;-51
2022/12/03 03:40:08;;;;;;;1999.90;610.73;;;1.00;99.90;;;;;;5068904;28;20302;-51
2022/12/03 03:42:37;;;;;;;1535.53;465.90;;;1.00;99.90;;;;;;5068086;28;20263;-51
2022/12/03 03:45:07;;;;;;;1999.90;999.90;;;1.10;99.90;;;;;;5068527;28;20244;-51
2022/12/03 03:47:36;;;;;;;1685.63;476.93;;;1.20;99.90;;;;;;5068759;28;20228;-51
2022/12/03 03:50:05;;;;;;;952.93;298.80;;;1.10;99.90;;;;;;5068128;28;20239;-51
2022/12/03 03:52:36;;;;;;;1999.90;729.97;;;1.10;99.90;;;;;;5068430;28;20240;-51
2022/12/03 03:55:05;;;;;;;1831.53;513.17;;;1.00;99.90;;;;;;5056199;28;20230;-51
2022/12/03 03:57:33;;;;;;;1999.90;750.57;;;1.00;99.90;;;;;;5068573;28;20779;-51
2022/12/03 04:00:03;;;;;;;1999.90;892.70;;;0.90;99.90;;;;;;5068381;28;20240;-51
2022/12/03 04:02:32;;;;;;;1999.90;855.00;;;1.00;99.90;;;;;;5067783;28;20772;-50
2022/12/03 04:05:01;;;;;;;1855.77;520.17;;;1.00;99.90;;;;;;5068141;28;20706;-51
2022/12/03 04:07:29;;;;;;;1578.13;364.37;;;1.00;99.90;;;;;;5068465;28;20312;-51
2022/12/03 04:09:58;;;;;;;1999.90;999.90;;;1.00;99.90;;;;;;5068508;28;20214;-51
2022/12/03 04:15:12;;;;;;;1857.77;487.57;;;1.00;99.90;;;;;;5068274;28;20245;-51
2022/12/03 04:17:40;;;;;;;114.40;97.00;;;0.90;99.90;;;;;;5068458;28;20313;-51
2022/12/03 04:20:08;;;;;;;1162.17;389.17;;;0.90;99.90;;;;;;5069150;28;20240;-51
2022/12/03 04:22:38;;;;;;;1999.90;687.37;;;1.00;99.90;;;;;;5071874;28;20287;-51
2022/12/03 04:30:41;;;;;;;186.23;155.93;;;1.00;99.90;;;;;;5070794;28;20742;-51
2022/12/03 04:35:54;;;;;;;1999.90;715.07;;;1.10;99.90;;;;;;5071043;28;20218;-51
2022/12/03 04:38:22;;;;;;;198.27;159.07;;;1.00;99.90;;;;;;5071830;28;20244;-51
2022/12/03 04:41:02;;;;;;;380.20;178.57;;;1.00;99.90;;;;;;5068118;28;20246;-51
2022/12/03 04:43:32;;;;;;;1999.90;997.83;;;1.00;99.90;;;;;;5067433;28;20232;-51
2022/12/03 04:46:02;;;;;;;322.60;168.50;;;1.10;99.90;;;;;;5064094;28;20676;-51
2022/12/03 04:48:30;;;;;;;145.30;111.53;;;1.00;99.90;;;;;;5071829;28;20234;-51
2022/12/03 04:50:58;;;;;;;491.77;215.57;;;1.00;99.90;;;;;;5071469;28;20763;-51
2022/12/03 04:53:26;;;;;;;1082.77;448.90;;;1.00;99.90;;;;;;5070667;28;20231;-52
2022/12/03 04:55:56;;;;;;;152.80;115.60;;;1.00;99.90;;;;;;5071318;28;20214;-51
2022/12/03 04:58:24;;;;;;;1133.50;302.00;;;1.00;99.90;;;;;;5071059;28;20223;-51
2022/12/03 05:00:52;;;;;;;1673.47;419.83;;;1.00;99.90;;;;;;5071604;28;20252;-51
2022/12/03 05:03:20;;;;;;;1876.47;497.87;;;1.00;99.90;;;;;;5070761;28;20227;-51
2022/12/03 05:05:48;;;;;;;307.07;119.73;;;1.00;99.90;;;;;;5063693;28;20297;-52
2022/12/03 05:08:16;;;;;;;1999.90;997.70;;;1.00;99.90;;;;;;5070867;28;20317;-52
2022/12/03 05:10:44;;;;;;;1613.17;586.67;;;1.10;99.90;;;;;;5057862;28;20543;-51
2022/12/03 05:13:13;;;;;;;1965.83;676.63;;;1.00;99.90;;;;;;5063179;28;20305;-51
2022/12/03 05:15:41;;;;;;;618.37;225.33;;;1.00;99.90;;;;;;5070036;28;20210;-51
2022/12/03 05:18:09;;;;;;;476.40;211.13;;;1.00;99.90;;;;;;5070545;28;20319;-51
2022/12/03 05:20:43;;;;;;;159.97;104.27;;;0.90;99.90;;;;;;5070907;28;20639;-51
2022/12/03 05:23:20;;;;;;;1999.90;999.90;;;0.90;99.90;;;;;;5070208;28;20238;-51
2022/12/03 05:25:48;;;;;;;1061.87;358.57;;;1.10;99.90;;;;;;5070406;28;20245;-51
2022/12/03 05:28:19;;;;;;;750.00;303.73;;;1.00;99.90;;;;;;5070451;28;20700;-51
2022/12/03 05:30:47;;;;;;;710.87;228.07;;;1.00;99.90;;;;;;5070824;28;20235;-51
2022/12/03 05:33:15;;;;;;;1999.90;825.20;;;1.00;99.90;;;;;;5069544;28;20219;-51
2022/12/03 05:35:43;;;;;;;1999.90;590.40;;;1.10;99.90;;;;;;5066146;28;20965;-51
2022/12/03 05:38:11;;;;;;;1262.47;423.10;;;1.00;99.90;;;;;;5070369;28;20264;-52
2022/12/03 05:40:39;;;;;;;289.03;160.73;;;0.90;99.90;;;;;;5070327;28;20211;-51
2022/12/03 05:43:06;;;;;;;679.43;255.17;;;0.90;99.90;;;;;;5063278;28;20941;-51
2022/12/03 05:45:38;;;;;;;1888.97;418.27;;;1.00;99.90;;;;;;5070616;28;20206;-51
2022/12/03 05:48:07;;;;;;;1999.90;727.37;;;0.90;99.90;;;;;;5070427;28;20238;-51
2022/12/03 05:50:37;;;;;;;1979.73;545.10;;;1.00;99.90;;;;;;5064588;28;20243;-51
2022/12/03 05:53:06;;;;;;;1722.17;532.57;;;1.00;99.90;;;;;;5068902;28;20211;-51
2022/12/03 05:55:34;;;;;;;75.07;67.37;;;0.90;99.90;;;;;;5069130;28;20306;-51
2022/12/03 05:58:02;;;;;;;957.23;265.13;;;0.90;99.90;;;;;;5069996;28;20756;-51
2022/12/03 06:00:36;;;;;;;1999.90;797.60;;;1.00;99.90;;;;;;5069975;28;20303;-51
2022/12/03 06:03:11;;;;;;;1458.00;470.20;;;1.10;99.90;;;;;;5069252;28;20202;-50
2022/12/03 06:05:39;;;;;;;1999.90;999.90;;;1.10;99.90;;;;;;5070257;28;20295;-51
2022/12/03 06:08:07;;;;;;;1999.90;999.90;;;1.10;99.90;;;;;;5069251;28;20391;-51
2022/12/03 06:10:36;;;;;;;1523.60;515.97;;;1.00;99.90;;;;;;5070111;28;20677;-51
2022/12/03 06:13:04;;;;;;;1953.83;638.33;;;1.00;99.90;;;;;;5065263;28;20304;-51
2022/12/03 06:15:32;;;;;;;1859.00;637.07;;;1.00;99.90;;;;;;5069693;28;20229;-51
2022/12/03 06:18:07;;;;;;;1562.13;402.67;;;1.00;99.90;;;;;;5069611;28;20237;-50
2022/12/03 06:20:36;;;;;;;1999.90;721.20;;;0.90;99.90;;;;;;5064565;28;20314;-51
2022/12/03 06:23:04;;;;;;;1999.90;574.03;;;0.90;99.90;;;;;;5069031;28;20296;-51
2022/12/03 06:25:32;;;;;;;1737.70;412.23;;;0.80;99.90;;;;;;5056816;28;20217;-51
2022/12/03 06:28:00;;;;;;;644.90;355.40;;;0.70;99.90;;;;;;5070940;28;20975;-51
2022/12/03 06:30:28;;;;;;;1877.93;403.00;;;0.80;99.90;;;;;;5071592;28;20242;-51
2022/12/03 06:32:56;;;;;;;1700.60;415.33;;;0.80;99.90;;;;;;5067565;28;20985;-51
2022/12/03 06:35:24;;;;;;;208.20;145.97;;;0.80;99.90;;;;;;5070355;28;20291;-52
2022/12/03 06:37:54;;;;;;;143.60;116.60;;;0.80;99.90;;;;;;5069840;28;20953;-51
2022/12/03 06:40:23;;;;;;;1501.70;372.03;;;0.80;99.90;;;;;;5069164;28;20229;-51
2022/12/03 06:42:51;;;;;;;248.60;140.93;;;0.80;99.90;;;;;;5068384;28;20225;-51
2022/12/03 06:45:19;;;;;;;100.53;78.43;;;0.90;99.90;;;;;;5069386;28;20281;-51
2022/12/03 06:47:47;;;;;;;427.00;213.77;;;0.90;99.90;;;;;;5055370;28;20223;-51
2022/12/03 06:50:15;;;;;;;159.23;71.83;;;1.00;99.90;;;;;;5065638;28;20779;-51
2022/12/03 06:52:43;;;;;;;1194.13;247.10;;;1.00;99.90;;;;;;5068837;28;20239;-52
2022/12/03 06:55:13;;;;;;;571.23;235.33;;;1.00;99.90;;;;;;5069118;28;20250;-52
2022/12/03 06:57:41;;;;;;;179.37;135.33;;;0.90;99.90;;;;;;5068354;28;20306;-52
2022/12/03 07:00:10;;;;;;;705.53;226.37;;;1.00;99.90;;;;;;5069395;28;20257;-51
2022/12/03 07:02:38;;;;;;;114.33;98.33;;;1.00;99.90;;;;;;5056116;28;21002;-51
2022/12/03 07:05:07;;;;;;;150.60;110.17;;;1.00;99.90;;;;;;5068542;28;20232;-51
2022/12/03 07:07:35;;;;;;;153.80;139.30;;;1.00;99.90;;;;;;5063847;28;20772;-52
2022/12/03 07:10:04;;;;;;;1000.17;250.70;;;1.00;99.90;;;;;;5069317;28;20233;-51
2022/12/03 07:12:34;;;;;;;108.20;96.37;;;1.00;99.90;;;;;;5068293;28;20222;-51
2022/12/03 07:15:02;;;;;;;358.77;192.97;;;1.00;99.90;;;;;;5068839;28;20238;-51
2022/12/03 07:17:30;;;;;;;99.87;89.97;;;1.00;99.90;;;;;;5068961;28;20697;-51
2022/12/03 07:19:58;;;;;;;458.87;177.17;;;1.10;99.90;;;;;;5068800;28;20240;-51
2022/12/03 07:22:26;;;;;;;1999.90;596.17;;;1.10;99.90;;;;;;5068319;28;20215;-51
2022/12/03 07:24:54;;;;;;;285.37;151.37;;;1.00;99.90;;;;;;5068640;28;20238;-52
2022/12/03 07:27:22;;;;;;;75.23;66.33;;;1.00;99.90;;;;;;5063752;28;20231;-51
2022/12/03 07:29:52;;;;;;;148.87;133.83;;;1.00;99.90;;;;;;5068708;28;20711;-51
2022/12/03 07:32:20;;;;;;;1923.37;471.03;;;1.10;99.90;;;;;;5068045;28;20218;-51
2022/12/03 07:34:48;;;;;;;1999.90;701.60;;;1.10;99.90;;;;;;5068779;28;20210;-51
2022/12/03 07:37:16;;;;;;;590.83;132.17;;;1.20;99.90;;;;;;5067738;28;21004;-51
2022/12/03 07:39:51;;;;;;;62.73;44.37;;;1.10;99.90;;;;;;5069143;28;20620;-51
2022/12/03 07:42:19;;;;;;;128.10;67.90;;;1.10;99.90;;;;;;5068160;28;20216;-51
2022/12/03 07:44:47;;;;;;;125.40;112.50;;;1.10;99.90;;;;;;5068599;28;20311;-51
2022/12/03 07:47:16;;;;;;;82.87;74.27;;;1.10;99.90;;;;;;5064459;28;20256;-52
2022/12/03 07:49:44;;;;;;;159.13;135.97;;;1.10;99.90;;;;;;5067804;28;20243;-51
2022/12/03 07:52:13;;;;;;;135.23;79.70;;;1.20;99.90;;;;;;5068071;28;20248;-51
2022/12/03 07:54:41;;;;;;;88.87;78.77;;;1.20;99.90;;;;;;5068851;28;20202;-51
2022/12/03 07:57:09;;;;;;;173.83;97.57;;;1.20;99.90;;;;;;5065867;28;20740;-51
2022/12/03 07:59:37;;;;;;;1138.73;329.73;;;1.20;99.90;;;;;;5072085;28;20298;-51
2022/12/03 08:02:05;;;;;;;420.97;186.07;;;1.20;99.90;;;;;;5068949;28;20250;-51
2022/12/03 08:04:34;;;;;;;578.93;214.73;;;1.30;99.90;;;;;;5069366;28;20227;-51
2022/12/03 08:07:02;;;;;;;162.77;99.97;;;1.20;99.90;;;;;;5071498;28;20747;-51
2022/12/03 08:09:31;;;;;;;1423.80;394.97;;;1.10;99.90;;;;;;5071722;28;20307;-51
2022/12/03 08:12:02;;;;;;;143.37;130.57;;;1.20;99.90;;;;;;5070123;28;20303;-51
2022/12/03 08:14:30;;;;;;;448.00;201.33;;;1.20;99.90;;;;;;5064738;28;20303;-51
2022/12/03 08:16:58;;;;;;;432.83;192.00;;;1.20;99.90;;;;;;5069366;28;20234;-50
2022/12/03 08:19:27;;;;;;;1316.27;449.07;;;1.20;99.90;;;;;;5071768;28;20293;-51
2022/12/03 08:21:56;;;;;;;267.60;176.77;;;1.10;99.90;;;;;;5071553;28;20206;-51
2022/12/03 08:24:30;;;;;;;1999.90;728.30;;;1.10;99.90;;;;;;5071853;28;20207;-51
2022/12/03 08:26:58;;;;;;;1999.90;620.77;;;1.10;99.90;;;;;;5071064;28;20298;-51
2022/12/03 08:29:26;;;;;;;1748.13;460.77;;;1.10;99.90;;;;;;5070463;28;20714;-51
2022/12/03 08:31:55;;;;;;;1915.10;451.03;;;1.10;99.90;;;;;;5071622;28;20227;-51
2022/12/03 08:34:27;;;;;;;1999.90;791.60;;;1.10;99.90;;;;;;5062354;28;20203;-52
2022/12/03 08:37:00;;;;;;;668.83;260.90;;;1.20;99.90;;;;;;5070584;28;20257;-51
2022/12/03 08:39:32;;;;;;;62.30;48.03;;;1.10;99.90;;;;;;5071870;28;20832;-52
2022/12/03 08:45:44;;;;;;;1999.90;999.90;;;1.30;99.90;;;;;;5071783;28;20763;-50
2022/12/03 08:48:41;;;;;;;1987.00;683.17;;;1.20;99.90;;;;;;5071737;28;20269;-52
2022/12/03 08:51:22;;;;;;;1686.50;553.80;;;1.20;99.90;;;;;;5071595;28;20222;-51
2022/12/03 08:53:53;;;;;;;1687.90;471.63;;;1.10;99.90;;;;;;5068647;28;20249;-52
2022/12/03 08:56:30;;;;;;;1436.97;416.27;;;1.10;99.90;;;;;;5069943;28;20234;-52
2022/12/03 08:58:59;;;;;;;560.33;213.93;;;1.00;99.90;;;;;;5071298;28;20667;-51
2022/12/03 09:01:38;;;;;;;1334.47;370.03;;;1.00;99.90;;;;;;5071264;28;20292;-52
2022/12/03 09:04:25;;;;;;;1539.37;484.80;;;1.00;99.90;;;;;;5070404;28;20706;-52
2022/12/03 09:06:54;;;;;;;1999.90;591.57;;;1.10;99.90;;;;;;5070281;28;20956;-50
2022/12/03 09:09:24;;;;;;;154.93;120.50;;;1.10;99.90;;;;;;5071290;28;20264;-51
2022/12/03 09:11:54;;;;;;;1950.90;430.60;;;1.10;99.90;;;;;;5070256;28;20298;-51
2022/12/03 09:14:22;;;;;;;874.50;293.83;;;1.10;99.90;;;;;;5070822;28;20663;-51
2022/12/03 09:16:54;;;;;;;158.40;118.80;;;1.10;99.90;;;;;;5070402;28;20860;-51
2022/12/03 09:19:23;;;;;;;1881.77;498.70;;;1.10;99.90;;;;;;5070562;28;20271;-51
2022/12/03 09:21:51;;;;;;;1328.13;352.83;;;1.10;99.90;;;;;;5070620;28;20303;-51
2022/12/03 09:24:19;;;;;;;622.47;212.93;;;1.10;99.90;;;;;;5070675;28;20243;-51
2022/12/03 09:26:49;;;;;;;407.50;170.33;;;1.20;99.90;;;;;;5070314;28;20681;-51
2022/12/03 09:29:17;;;;;;;1999.90;544.70;;;1.20;99.90;;;;;;5070572;28;20242;-51
2022/12/03 09:31:45;;;;;;;423.07;203.53;;;1.20;99.90;;;;;;5069993;28;20263;-52
2022/12/03 09:34:13;;;;;;;1279.40;328.20;;;1.10;99.90;;;;;;5070409;28;20941;-51
2022/12/03 09:36:41;;;;;;;500.80;268.30;;;1.10;99.90;;;;;;5070324;28;20237;-51
2022/12/03 09:39:09;;;;;;;1999.90;691.43;;;1.20;99.90;;;;;;5070674;28;20257;-51
2022/12/03 09:41:37;;;;;;;783.80;271.37;;;1.20;99.90;;;;;;5061351;28;20244;-51
2022/12/03 09:44:07;;;;;;;217.20;95.37;;;1.20;99.90;;;;;;5069703;28;20239;-51
2022/12/03 09:46:43;;;;;;;1188.17;294.43;;;1.20;99.90;;;;;;5065243;28;20228;-51
2022/12/03 09:49:15;;;;;;;1916.73;585.97;;;1.20;99.90;;;;;;5069955;28;20765;-51
2022/12/03 09:51:44;;;;;;;1291.40;349.77;;;1.20;99.90;;;;;;5069791;28;20720;-52
2022/12/03 09:54:22;;;;;;;1557.67;497.13;;;1.10;99.90;;;;;;5069786;28;20218;-52
2022/12/03 09:56:51;;;;;;;130.23;117.50;;;1.10;99.90;;;;;;5069885;28;20282;-51
2022/12/03 09:59:21;;;;;;;519.20;224.60;;;1.20;99.90;;;;;;5070069;28;20214;-50
2022/12/03 10:01:50;;;;;;;96.50;84.63;;;1.20;99.90;;;;;;5064564;28;20237;-51
2022/12/03 10:04:18;;;;;;;884.53;256.13;;;1.20;99.90;;;;;;5069909;28;20239;-51
2022/12/03 10:06:47;;;;;;;87.03;73.63;;;1.30;99.90;;;;;;5068925;28;20266;-51
2022/12/03 10:09:22;;;;;;;1999.90;856.40;;;1.30;99.90;;;;;;5069849;28;20261;-51
2022/12/03 10:11:50;;;;;;;143.43;87.93;;;1.30;99.90;;;;;;5068960;28;20759;-51
2022/12/03 10:14:21;;;;;;;435.17;177.53;;;1.40;99.90;;;;;;5069337;28;20320;-52
2022/12/03 10:16:49;;;;;;;329.30;139.83;;;1.30;99.90;;;;;;5069412;28;20302;-51
2022/12/03 10:19:21;;;;;;;136.40;113.40;;;1.30;99.90;;;;;;5068847;28;20215;-53
2022/12/03 10:21:49;;;;;;;275.90;113.10;;;1.30;99.90;;;;;;5069041;28;20394;-51
2022/12/03 10:24:20;;;;;;;80.43;64.93;;;1.30;99.90;;;;;;5069306;28;20226;-52
2022/12/03 10:26:49;;;;;;;145.27;80.87;;;1.30;99.90;;;;;;5066494;28;20319;-51
2022/12/03 10:29:19;;;;;;;99.73;90.00;;;1.40;99.90;;;;;;5066123;28;20236;-52
2022/12/03 10:31:55;;;;;;;153.13;122.07;;;1.40;99.90;;;;;;5065017;28;20269;-52
2022/12/03 10:34:29;;;;;;;143.37;102.20;;;1.40;99.90;;;;;;5068506;28;20254;-52
2022/12/03 10:37:15;;;;;;;341.57;160.77;;;1.40;99.90;;;;;;5060819;28;20243;-53
2022/12/03 10:39:58;;;;;;;1206.80;328.43;;;1.40;99.90;;;;;;5069428;28;20235;-51
2022/12/03 10:42:28;;;;;;;442.47;143.60;;;1.40;99.90;;;;;;5065077;28;20242;-52
2022/12/03 10:45:23;;;;;;;856.63;265.13;;;1.40;99.90;;;;;;5065869;28;20243;-51
2022/12/03 10:48:14;;;;;;;935.33;352.43;;;1.40;99.90;;;;;;5035365;28;20330;-51
2022/12/03 10:50:53;;;;;;;1999.90;481.27;;;1.40;99.90;;;;;;5064515;28;20294;-52
2022/12/03 10:53:23;;;;;;;1494.73;393.10;;;1.40;99.90;;;;;;5055567;28;20252;-52
2022/12/03 10:55:57;;;;;;;142.37;120.10;;;1.40;99.90;;;;;;5068528;28;20291;-50
2022/12/03 10:58:28;;;;;;;820.63;306.30;;;1.40;99.90;;;;;;5055958;28;20285;-51
2022/12/03 11:00:58;;;;;;;1999.90;513.70;;;1.40;99.90;;;;;;5064924;28;20693;-52
2022/12/03 11:03:30;;;;;;;390.47;190.47;;;1.50;99.90;;;;;;5067490;28;20203;-52
2022/12/03 11:06:01;;;;;;;1048.80;303.53;;;1.40;99.90;;;;;;5068853;28;20300;-51
2022/12/03 11:08:34;;;;;;;693.87;218.83;;;1.40;99.90;;;;;;5058097;28;21155;-51
2022/12/03 11:11:06;;;;;;;1999.90;999.90;;;1.40;99.90;;;;;;5069161;28;20243;-52
2022/12/03 11:13:52;;;;;;;1431.60;402.53;;;1.50;99.90;;;;;;5067768;28;20294;-52
2022/12/03 11:17:08;;;;;;;845.70;253.43;;;1.40;99.90;;;;;;5068666;28;20297;-52
2022/12/03 11:19:49;;;;;;;1371.37;367.27;;;1.40;99.90;;;;;;5006196;28;20215;-51
2022/12/03 11:22:33;;;;;;;1290.80;298.67;;;1.40;99.90;;;;;;5053366;28;20791;-52
2022/12/03 11:25:49;;;;;;;862.33;307.87;;;1.30;99.90;;;;;;5067910;28;20695;-52
2022/12/03 11:28:52;;;;;;;142.53;128.10;;;1.40;99.90;;;;;;5066522;28;20250;-52
2022/12/03 11:31:39;;;;;;;250.27;140.73;;;1.40;99.90;;;;;;5072598;28;20212;-51
2022/12/03 11:34:47;;;;;;;598.60;218.13;;;1.50;99.90;;;;;;5071370;28;20615;-51
2022/12/03 11:37:27;;;;;;;1115.50;369.03;;;1.50;99.90;;;;;;5071689;28;20233;-52
2022/12/03 11:40:32;;;;;;;95.07;85.47;;;1.60;99.90;;;;;;5072269;28;20201;-51
2022/12/03 11:43:10;;;;;;;1075.10;347.33;;;1.60;99.90;;;;;;5072039;28;20208;-52
2022/12/03 11:45:39;;;;;;;1999.90;832.80;;;1.60;99.90;;;;;;5072062;28;20208;-51
2022/12/03 11:48:12;;;;;;;1381.93;388.50;;;1.50;99.90;;;;;;5071790;28;20237;-52
2022/12/03 11:50:43;;;;;;;1999.90;705.93;;;1.40;99.90;;;;;;5071837;28;20571;-51
2022/12/03 11:53:17;;;;;;;1938.43;448.93;;;1.40;99.90;;;;;;5072018;28;20302;-51
2022/12/03 11:55:51;;;;;;;1999.90;521.20;;;1.40;99.90;;;;;;5069740;28;20296;-52
2022/12/03 11:58:24;;;;;;;1999.90;863.37;;;1.40;99.90;;;;;;5063414;28;20333;-51
2022/12/03 12:00:53;;;;;;;1999.90;525.30;;;1.40;99.90;;;;;;5068770;28;20295;-52
2022/12/03 12:03:26;;;;;;;1761.90;336.53;;;1.30;99.90;;;;;;5071102;28;20306;-52
2022/12/03 12:06:05;;;;;;;359.63;174.80;;;1.30;99.90;;;;;;5071455;28;20208;-52
2022/12/03 12:08:35;;;;;;;1457.17;373.63;;;1.30;99.90;;;;;;5072007;28;20315;-51
2022/12/03 12:11:15;;;;;;;156.17;106.23;;;1.30;99.90;;;;;;5071717;28;20247;-51
2022/12/03 12:13:54;;;;;;;558.17;211.47;;;1.30;99.90;;;;;;5072002;28;20236;-51
2022/12/03 12:16:49;;;;;;;1358.27;363.33;;;1.40;99.90;;;;;;5069862;28;20202;-52
2022/12/03 12:19:29;;;;;;;1471.73;571.40;;;1.30;99.90;;;;;;5071366;28;20223;-51
2022/12/03 12:22:13;;;;;;;1345.87;418.90;;;1.40;99.90;;;;;;5071552;28;20208;-51
2022/12/03 12:24:50;;;;;;;1855.77;496.10;;;1.40;99.90;;;;;;5071514;28;20236;-51
2022/12/03 12:27:22;;;;;;;1450.93;382.13;;;1.40;99.90;;;;;;5071299;28;20249;-52
2022/12/03 12:29:54;;;;;;;329.03;148.10;;;1.30;99.90;;;;;;5071765;28;20205;-51
2022/12/03 12:32:27;;;;;;;1536.60;506.70;;;1.30;99.90;;;;;;5058650;28;20268;-51
2022/12/03 12:34:59;;;;;;;1999.90;512.10;;;1.30;99.90;;;;;;5069839;28;20774;-51
2022/12/03 12:37:33;;;;;;;1999.90;735.27;;;1.30;99.90;;;;;;5070810;28;20289;-51
2022/12/03 12:40:11;;;;;;;1266.40;560.90;;;1.20;99.90;;;;;;5071949;28;20293;-51
2022/12/03 12:42:44;;;;;;;383.53;192.37;;;1.20;99.90;;;;;;5070048;28;20238;-51
2022/12/03 12:45:14;;;;;;;1999.90;656.37;;;1.20;99.90;;;;;;5071349;28;20211;-51
2022/12/03 12:47:49;;;;;;;1354.27;495.00;;;1.10;99.90;;;;;;5070466;28;20237;-51
2022/12/03 12:50:19;;;;;;;1999.90;901.37;;;1.20;99.90;;;;;;5071424;28;20219;-51
2022/12/03 12:52:51;;;;;;;281.20;148.40;;;1.30;99.90;;;;;;5070532;28;20302;-51